Franklin, Illinois
Current Conditions -  °F | °C
As of 10:15 AM on Thursday 18 Dec 2014 (Local Time) from KIJX Reporting Station
Light Snow Light Snow  
Wind Chill: 28°   Ceiling: 700
Heat Index: 28°   Visibility: 2.5mi
Dew Point: 25°   Wind: 3mph
Humidity: 87%   Direction: 80°E
Pressure: 30.32"   Gusts: NA
Location:  39.62°N, 90.04°W
Report Text: KIJX 181615Z AUTO 08003KT 2 1/2SM -SN BKN007 BKN034 OVC042 M02/M04 A3032 RMK AO2 T10211040
Loading
Personal Weather Stations






























Interactive Weather Map New forecast layout! Learn more

10-Day Weather Forecast

Advertisements
Track Severe Weather on mobile